Boat of Garten, United Kingdom
Current Conditions -  °F | °C
As of 6:20 PM on Sunday 21 Dec 2014 (Local Time) from EGPE Reporting Station
Moderate Rain Moderate Rain  
Wind Chill:   Ceiling: 4800
Heat Index:   Visibility: 6mi
Dew Point:   Wind: 10mph
Humidity: 93%   Direction: 250°WSW
Pressure: 29.53"   Gusts: NA
Location:  57.25°N, 3.75°W
Report Text: EGPE 211820Z 25009KT 9999 RA FEW019 SCT032 BKN048 08/07 Q1000
Loading
Personal Weather Stations






























Interactive Weather Map New forecast layout! Learn more

10-Day Weather Forecast

Advertisements
Track Severe Weather on mobile